Time;durP1;ratioP1;P1;durP2;ratioP2;P2;SDS_P1;SDS_P2;PMS_P1;PMS_P2;Temp;Humidity;BMP_temperature;BMP_pressure;BME280_temperature;BME280_humidity;BME280_pressure;Samples;Min_cycle;Max_cycle;Signal;HPM_P1;HPM_P2
2023/08/31 00:02:21;;;;;;;13.53;5.93;;;;;13.30;100262.00;;;;4959469;28;20231;-71
2023/08/31 00:05:10;;;;;;;8.17;5.20;;;;;13.30;100262.00;;;;4964143;28;20243;-71
2023/08/31 00:07:56;;;;;;;13.43;5.83;;;;;13.40;100255.00;;;;4961324;28;20239;-71
2023/08/31 00:10:43;;;;;;;7.90;5.63;;;;;13.40;100258.00;;;;4955912;28;20235;-72
2023/08/31 00:13:29;;;;;;;13.27;5.90;;;;;13.40;100254.00;;;;4963309;28;20235;-70
2023/08/31 00:16:18;;;;;;;13.47;5.43;;;;;13.40;100262.00;;;;4960571;28;20720;-70
2023/08/31 00:19:05;;;;;;;9.43;5.67;;;;;13.40;100261.00;;;;4965020;28;20715;-69
2023/08/31 00:21:52;;;;;;;10.83;5.77;;;;;13.40;100261.00;;;;4971342;28;20238;-72
2023/08/31 00:24:38;;;;;;;8.57;5.57;;;;;13.40;100251.00;;;;4967094;28;20650;-71
2023/08/31 00:27:25;;;;;;;9.17;5.70;;;;;13.40;100251.00;;;;4963388;28;20653;-68
2023/08/31 00:30:14;;;;;;;11.17;6.17;;;;;13.40;100254.00;;;;4958827;28;20235;-71
2023/08/31 00:33:00;;;;;;;10.90;5.87;;;;;13.50;100249.00;;;;4962970;28;20716;-71
2023/08/31 00:35:47;;;;;;;12.33;6.33;;;;;13.40;100251.00;;;;4961996;28;20981;-71
2023/08/31 00:38:34;;;;;;;13.60;5.70;;;;;13.40;100251.00;;;;4962087;28;20795;-70
2023/08/31 00:41:20;;;;;;;7.93;5.43;;;;;13.40;100253.00;;;;4965836;28;20247;-70
2023/08/31 00:44:07;;;;;;;9.50;5.83;;;;;13.40;100256.00;;;;4967301;28;20235;-68
2023/08/31 00:46:54;;;;;;;7.63;5.53;;;;;13.40;100259.00;;;;4965325;28;20716;-71
2023/08/31 00:49:41;;;;;;;8.93;5.40;;;;;13.40;100258.00;;;;4966373;28;20278;-70
2023/08/31 00:52:27;;;;;;;9.63;5.37;;;;;13.40;100262.00;;;;4963663;28;20235;-71
2023/08/31 00:55:17;;;;;;;13.23;5.70;;;;;13.30;100252.00;;;;4960235;28;20390;-72
2023/08/31 00:58:05;;;;;;;8.90;5.63;;;;;13.30;100257.00;;;;4960876;28;20447;-70
2023/08/31 01:00:59;;;;;;;11.20;5.53;;;;;13.30;100258.00;;;;4963205;28;20235;-71
2023/08/31 01:03:54;;;;;;;9.90;5.37;;;;;13.20;100256.00;;;;4961764;28;20627;-70
2023/08/31 01:06:57;;;;;;;9.17;5.63;;;;;13.20;100259.00;;;;4959422;28;20465;-68
2023/08/31 01:09:51;;;;;;;11.47;5.77;;;;;13.10;100254.00;;;;4962377;28;20231;-71
2023/08/31 01:12:45;;;;;;;10.30;5.70;;;;;13.10;100257.00;;;;4962497;28;20828;-70
2023/08/31 01:15:32;;;;;;;11.73;5.63;;;;;13.10;100251.00;;;;4960716;28;20231;-70
2023/08/31 01:18:21;;;;;;;9.77;5.27;;;;;13.00;100252.00;;;;4964018;28;20379;-71
2023/08/31 01:21:17;;;;;;;9.80;5.67;;;;;13.00;100257.00;;;;4959112;28;20294;-68
2023/08/31 01:24:06;;;;;;;9.67;4.93;;;;;12.90;100265.00;;;;4966755;28;20235;-70
2023/08/31 01:26:54;;;;;;;11.13;5.17;;;;;13.00;100262.00;;;;4963929;28;20299;-70
2023/08/31 01:29:40;;;;;;;6.90;5.33;;;;;13.00;100259.00;;;;4964523;28;20231;-72
2023/08/31 01:32:27;;;;;;;9.63;5.17;;;;;12.90;100265.00;;;;4968474;28;20242;-72
2023/08/31 01:35:16;;;;;;;7.60;5.17;;;;;12.90;100265.00;;;;4953092;28;20235;-70
2023/08/31 01:38:08;;;;;;;10.27;5.40;;;;;13.00;100262.00;;;;4958074;28;20775;-70
2023/08/31 01:41:03;;;;;;;8.80;5.10;;;;;13.00;100261.00;;;;4961803;28;20875;-71
2023/08/31 01:43:51;;;;;;;8.47;5.00;;;;;13.00;100259.00;;;;4963025;28;20286;-71
2023/08/31 01:46:38;;;;;;;7.47;4.97;;;;;13.00;100261.00;;;;4962453;28;20379;-70
2023/08/31 01:49:25;;;;;;;11.43;5.73;;;;;13.00;100258.00;;;;4954584;28;20362;-71
2023/08/31 01:52:11;;;;;;;11.17;5.03;;;;;12.90;100257.00;;;;4965632;28;20251;-70
2023/08/31 01:54:58;;;;;;;10.83;5.57;;;;;12.90;100261.00;;;;4961814;28;20817;-71
2023/08/31 01:57:45;;;;;;;8.27;5.33;;;;;12.80;100258.00;;;;4960252;28;20233;-69
2023/08/31 02:00:34;;;;;;;9.40;5.13;;;;;12.80;100264.00;;;;4962081;28;20227;-70
2023/08/31 02:03:20;;;;;;;8.07;5.43;;;;;12.80;100266.00;;;;4956466;28;20263;-69
2023/08/31 02:06:08;;;;;;;7.93;4.97;;;;;12.70;100271.00;;;;4957780;28;20231;-70
2023/08/31 02:08:54;;;;;;;8.97;5.20;;;;;12.70;100274.00;;;;4960903;28;20277;-69
2023/08/31 02:11:40;;;;;;;5.90;4.97;;;;;12.60;100272.00;;;;4962825;28;20231;-71
2023/08/31 02:14:30;;;;;;;12.07;5.10;;;;;12.50;100267.00;;;;4959152;28;20227;-70
2023/08/31 02:17:16;;;;;;;7.70;4.90;;;;;12.50;100265.00;;;;4958769;28;20231;-70
2023/08/31 02:20:04;;;;;;;9.77;5.47;;;;;12.50;100266.00;;;;4961477;28;20223;-71
2023/08/31 02:22:50;;;;;;;9.17;5.10;;;;;12.40;100264.00;;;;4961204;28;20270;-71
2023/08/31 02:25:36;;;;;;;10.10;5.20;;;;;12.40;100266.00;;;;4959282;28;21170;-71
2023/08/31 02:28:23;;;;;;;6.67;4.67;;;;;12.40;100265.00;;;;4962147;28;20234;-70
2023/08/31 02:31:11;;;;;;;9.73;5.40;;;;;12.30;100271.00;;;;4962636;28;20239;-71
2023/08/31 02:33:58;;;;;;;10.73;5.27;;;;;12.30;100271.00;;;;4964121;28;20235;-70
2023/08/31 02:36:44;;;;;;;6.83;5.20;;;;;12.30;100272.00;;;;4958981;28;20234;-72
2023/08/31 02:39:31;;;;;;;8.07;4.87;;;;;12.20;100278.00;;;;4966158;28;20230;-71
2023/08/31 02:42:17;;;;;;;8.57;5.20;;;;;12.20;100274.00;;;;4961211;28;20384;-70
2023/08/31 02:45:04;;;;;;;9.40;4.90;;;;;12.20;100277.00;;;;4960530;28;20957;-71
2023/08/31 02:47:52;;;;;;;5.70;4.50;;;;;12.10;100274.00;;;;4960912;28;20321;-70
2023/08/31 02:50:39;;;;;;;7.80;4.80;;;;;12.10;100277.00;;;;4963480;28;20227;-72
2023/08/31 02:53:25;;;;;;;9.70;5.30;;;;;12.00;100277.00;;;;4965155;28;20239;-71
2023/08/31 02:56:11;;;;;;;8.10;5.63;;;;;12.00;100274.00;;;;4963246;28;20235;-70
2023/08/31 02:58:58;;;;;;;8.63;5.43;;;;;12.00;100276.00;;;;4961549;28;20243;-70
2023/08/31 03:01:46;;;;;;;8.00;5.60;;;;;12.00;100278.00;;;;4963940;28;20322;-70
2023/08/31 03:04:34;;;;;;;7.80;5.80;;;;;12.00;100279.00;;;;4964932;28;20787;-71
2023/08/31 03:07:20;;;;;;;8.93;6.03;;;;;12.00;100275.00;;;;4959748;28;20243;-70
2023/08/31 03:10:07;;;;;;;11.27;6.60;;;;;12.10;100271.00;;;;4963278;28;20231;-71
2023/08/31 03:12:56;;;;;;;9.07;6.13;;;;;12.10;100274.00;;;;4963107;28;20231;-71
2023/08/31 03:15:42;;;;;;;9.83;5.97;;;;;12.10;100275.00;;;;4955854;28;20232;-71
2023/08/31 03:18:28;;;;;;;9.30;6.60;;;;;12.10;100280.00;;;;4964109;28;20738;-70
2023/08/31 03:21:16;;;;;;;10.77;6.30;;;;;12.10;100275.00;;;;4972407;28;20234;-70
2023/08/31 03:24:02;;;;;;;9.20;6.10;;;;;12.20;100273.00;;;;4969191;28;20298;-70
2023/08/31 03:26:49;;;;;;;10.00;6.57;;;;;12.20;100278.00;;;;4968060;28;20727;-70
2023/08/31 03:29:35;;;;;;;13.50;7.40;;;;;12.20;100283.00;;;;4964541;28;20231;-69
2023/08/31 03:32:22;;;;;;;11.17;7.70;;;;;12.30;100283.00;;;;4968996;28;20755;-70
2023/08/31 03:35:09;;;;;;;11.77;7.40;;;;;12.30;100265.00;;;;4968723;28;20251;-70
2023/08/31 03:37:57;;;;;;;11.27;7.70;;;;;12.30;100267.00;;;;4963978;28;20262;-69
2023/08/31 03:40:44;;;;;;;17.20;8.90;;;;;12.40;100264.00;;;;4967978;28;20946;-70
2023/08/31 03:43:30;;;;;;;13.37;8.60;;;;;12.50;100270.00;;;;4964361;28;20771;-72
2023/08/31 03:46:16;;;;;;;13.27;8.17;;;;;12.40;100264.00;;;;4961650;28;20633;-70
2023/08/31 03:49:03;;;;;;;13.07;8.43;;;;;12.40;100270.00;;;;4965977;28;20231;-71
2023/08/31 03:51:49;;;;;;;12.77;8.83;;;;;12.40;100264.00;;;;4958968;28;20218;-71
2023/08/31 03:54:36;;;;;;;15.83;8.10;;;;;12.40;100270.00;;;;4969591;28;20226;-68
2023/08/31 03:57:23;;;;;;;14.47;9.63;;;;;12.40;100273.00;;;;4965892;28;20257;-70
2023/08/31 04:00:12;;;;;;;14.80;9.83;;;;;12.40;100273.00;;;;4961937;28;20254;-69
2023/08/31 04:02:59;;;;;;;17.77;9.90;;;;;12.50;100274.00;;;;4959631;28;20239;-69
2023/08/31 04:05:47;;;;;;;15.07;10.00;;;;;12.50;100280.00;;;;4966162;28;20235;-70
2023/08/31 04:08:34;;;;;;;14.33;9.70;;;;;12.50;100286.00;;;;4965332;28;20223;-70
2023/08/31 04:11:22;;;;;;;15.97;9.77;;;;;12.50;100281.00;;;;4967279;28;20239;-71
2023/08/31 04:14:08;;;;;;;17.23;9.73;;;;;12.50;100276.00;;;;4962641;28;20607;-70
2023/08/31 04:16:55;;;;;;;16.13;10.60;;;;;12.50;100271.00;;;;4963901;28;20359;-70
2023/08/31 04:19:41;;;;;;;18.07;10.77;;;;;12.50;100281.00;;;;4964894;28;20915;-70
2023/08/31 04:22:28;;;;;;;22.00;11.77;;;;;12.50;100286.00;;;;4966333;28;20418;-70
2023/08/31 04:25:15;;;;;;;17.37;10.97;;;;;12.50;100288.00;;;;4960160;28;20243;-70
2023/08/31 04:28:03;;;;;;;18.73;11.43;;;;;12.50;100288.00;;;;4961593;28;21085;-71
2023/08/31 04:30:49;;;;;;;17.10;11.33;;;;;12.60;100299.00;;;;4967940;28;20235;-71
2023/08/31 04:33:36;;;;;;;19.37;10.93;;;;;12.60;100293.00;;;;4967580;28;20728;-70
2023/08/31 04:36:23;;;;;;;18.23;10.80;;;;;12.60;100301.00;;;;4962361;28;20278;-70
2023/08/31 04:39:09;;;;;;;22.07;11.27;;;;;12.60;100306.00;;;;4968302;28;20231;-71
2023/08/31 04:41:55;;;;;;;18.40;11.03;;;;;12.60;100301.00;;;;4959063;28;20270;-70
2023/08/31 04:44:43;;;;;;;17.83;10.70;;;;;12.60;100301.00;;;;4968851;28;20829;-69
2023/08/31 04:47:29;;;;;;;19.23;10.90;;;;;12.60;100318.00;;;;4963531;28;20374;-71
2023/08/31 04:50:16;;;;;;;18.40;11.87;;;;;12.60;100307.00;;;;4963039;28;20282;-70
2023/08/31 04:53:03;;;;;;;19.93;10.83;;;;;12.50;100324.00;;;;4959060;28;20239;-70
2023/08/31 04:55:49;;;;;;;19.47;10.87;;;;;12.50;100317.00;;;;4963794;28;20227;-70
2023/08/31 04:58:35;;;;;;;17.70;10.93;;;;;12.60;100324.00;;;;4965817;28;20889;-70
2023/08/31 05:01:23;;;;;;;24.80;12.40;;;;;12.60;100321.00;;;;4961321;28;20231;-71
2023/08/31 05:04:09;;;;;;;22.10;12.17;;;;;12.60;100335.00;;;;4961779;28;20561;-71
2023/08/31 05:06:56;;;;;;;25.17;13.10;;;;;12.60;100332.00;;;;4962205;28;20283;-68
2023/08/31 05:09:42;;;;;;;22.43;13.77;;;;;12.60;100335.00;;;;4961669;28;20231;-71
2023/08/31 05:12:28;;;;;;;24.90;13.33;;;;;12.70;100339.00;;;;4964958;28;20235;-70
2023/08/31 05:15:15;;;;;;;29.67;13.87;;;;;12.70;100336.00;;;;4964657;28;20231;-69
2023/08/31 05:18:03;;;;;;;21.50;13.20;;;;;12.80;100342.00;;;;4964687;28;20285;-71
2023/08/31 05:20:49;;;;;;;23.47;14.83;;;;;12.80;100351.00;;;;4962493;28;20226;-70
2023/08/31 05:23:36;;;;;;;23.27;13.77;;;;;12.80;100350.00;;;;4960794;28;20243;-71
2023/08/31 05:26:23;;;;;;;23.40;13.07;;;;;12.80;100361.00;;;;4963520;28;20283;-71
2023/08/31 05:29:10;;;;;;;28.23;14.67;;;;;12.90;100366.00;;;;4942512;28;20612;-71
2023/08/31 05:31:56;;;;;;;27.73;14.67;;;;;12.80;100365.00;;;;4965929;28;20251;-70
2023/08/31 05:34:44;;;;;;;31.87;17.73;;;;;12.90;100359.00;;;;4954500;28;20307;-70
2023/08/31 05:37:33;;;;;;;33.13;16.93;;;;;12.80;100357.00;;;;4966959;28;20235;-71
2023/08/31 05:40:19;;;;;;;30.30;17.30;;;;;12.90;100359.00;;;;4969777;28;20230;-70
2023/08/31 05:43:06;;;;;;;31.37;16.97;;;;;13.00;100362.00;;;;4967771;28;20379;-69
2023/08/31 05:45:52;;;;;;;34.43;17.27;;;;;13.00;100370.00;;;;4966588;28;20232;-70
2023/08/31 05:48:38;;;;;;;33.77;17.60;;;;;13.00;100366.00;;;;4962179;28;20426;-70
2023/08/31 05:51:26;;;;;;;35.77;18.57;;;;;13.10;100365.00;;;;4962011;28;20319;-71
2023/08/31 05:54:13;;;;;;;34.93;18.83;;;;;13.10;100375.00;;;;4961236;28;20239;-67
2023/08/31 05:56:59;;;;;;;31.67;18.53;;;;;13.10;100384.00;;;;4958813;28;20235;-71
2023/08/31 05:59:45;;;;;;;40.00;19.60;;;;;13.10;100382.00;;;;4968073;28;20325;-69
2023/08/31 06:02:32;;;;;;;33.30;18.10;;;;;13.10;100377.00;;;;4969019;28;20239;-69
2023/08/31 06:05:19;;;;;;;35.20;19.57;;;;;13.10;100390.00;;;;4959479;28;20719;-71
2023/08/31 06:08:07;;;;;;;36.07;19.10;;;;;13.20;100392.00;;;;4962925;28;20236;-70
2023/08/31 06:10:54;;;;;;;35.77;18.77;;;;;13.20;100392.00;;;;4962406;28;20223;-71
2023/08/31 06:13:41;;;;;;;32.90;18.03;;;;;13.20;100392.00;;;;4936031;28;20310;-70
2023/08/31 06:16:27;;;;;;;32.50;18.67;;;;;13.20;100392.00;;;;4959879;28;20224;-70
2023/08/31 06:19:15;;;;;;;30.97;18.47;;;;;13.20;100393.00;;;;4953931;28;20231;-69
2023/08/31 06:22:01;;;;;;;35.63;19.20;;;;;13.30;100407.00;;;;4963957;28;20330;-70
2023/08/31 06:24:49;;;;;;;33.73;19.57;;;;;13.40;100403.00;;;;4962028;28;20318;-71
2023/08/31 06:27:36;;;;;;;37.97;20.67;;;;;13.40;100405.00;;;;4965876;28;20282;-68
2023/08/31 06:30:22;;;;;;;40.07;21.00;;;;;13.50;100406.00;;;;4963875;28;20230;-67
2023/08/31 06:33:08;;;;;;;34.27;19.70;;;;;13.50;100403.00;;;;4959616;28;20235;-70
2023/08/31 06:35:56;;;;;;;37.60;20.60;;;;;13.60;100405.00;;;;4965361;28;20314;-71
2023/08/31 06:38:42;;;;;;;32.30;19.23;;;;;13.70;100404.00;;;;4961038;28;20266;-70
2023/08/31 06:41:30;;;;;;;33.53;19.13;;;;;13.70;100407.00;;;;4960599;28;20624;-69
2023/08/31 06:44:17;;;;;;;33.60;18.17;;;;;13.70;100403.00;;;;4960139;28;20252;-71
2023/08/31 06:47:04;;;;;;;31.63;18.73;;;;;13.80;100406.00;;;;4958275;28;20228;-71
2023/08/31 06:49:50;;;;;;;30.57;18.00;;;;;13.90;100404.00;;;;4956555;28;20243;-71
2023/08/31 06:52:36;;;;;;;30.70;17.50;;;;;13.90;100405.00;;;;4971376;28;20932;-69
2023/08/31 06:55:23;;;;;;;26.57;16.70;;;;;14.10;100403.00;;;;4965229;28;20336;-70
2023/08/31 06:58:11;;;;;;;28.83;16.67;;;;;14.20;100404.00;;;;4961523;28;20352;-70
2023/08/31 07:00:58;;;;;;;24.87;16.00;;;;;14.30;100409.00;;;;4954690;28;20264;-73
2023/08/31 07:03:44;;;;;;;26.30;15.47;;;;;14.30;100404.00;;;;4954004;28;20825;-71
2023/08/31 07:06:30;;;;;;;21.37;13.83;;;;;14.40;100405.00;;;;4955177;28;20310;-69
2023/08/31 07:09:17;;;;;;;19.23;13.20;;;;;14.50;100406.00;;;;4959268;28;20643;-70
2023/08/31 07:12:04;;;;;;;19.87;12.97;;;;;14.40;100414.00;;;;4955073;28;20319;-71
2023/08/31 07:14:52;;;;;;;19.80;13.17;;;;;14.40;100412.00;;;;4965496;28;20231;-72
2023/08/31 07:17:38;;;;;;;18.33;12.43;;;;;14.50;100406.00;;;;4959156;28;20275;-71
2023/08/31 07:20:25;;;;;;;17.73;11.73;;;;;14.60;100413.00;;;;4961614;28;20441;-70
2023/08/31 07:23:11;;;;;;;16.20;11.63;;;;;14.60;100415.00;;;;4959235;28;21011;-71
2023/08/31 07:25:59;;;;;;;15.53;11.23;;;;;14.50;100414.00;;;;4956499;28;20239;-70
2023/08/31 07:28:46;;;;;;;16.27;11.00;;;;;14.60;100414.00;;;;4964979;28;20961;-70
2023/08/31 07:31:34;;;;;;;14.57;10.20;;;;;14.60;100423.00;;;;4954528;28;20236;-69
2023/08/31 07:34:20;;;;;;;12.97;9.23;;;;;14.60;100409.00;;;;4960501;28;20235;-71
2023/08/31 07:37:07;;;;;;;13.43;8.97;;;;;14.60;100424.00;;;;4957782;28;20363;-72
2023/08/31 07:39:53;;;;;;;11.60;8.43;;;;;14.70;100422.00;;;;4956258;28;20234;-71
2023/08/31 07:42:39;;;;;;;16.07;8.20;;;;;14.70;100443.00;;;;4958474;28;20722;-71
2023/08/31 07:45:25;;;;;;;10.90;7.70;;;;;14.80;100432.00;;;;4957266;28;20242;-68
2023/08/31 07:48:13;;;;;;;12.50;7.83;;;;;14.80;100417.00;;;;4954489;28;20326;-70
2023/08/31 07:50:59;;;;;;;13.53;7.37;;;;;14.80;100440.00;;;;4963375;28;20797;-70
2023/08/31 07:53:45;;;;;;;9.93;7.33;;;;;14.90;100443.00;;;;4954555;28;20238;-71
2023/08/31 07:56:31;;;;;;;15.10;7.60;;;;;14.90;100438.00;;;;4958477;28;20236;-71
2023/08/31 07:59:18;;;;;;;8.37;6.27;;;;;14.90;100435.00;;;;4957276;28;20281;-73
2023/08/31 08:02:05;;;;;;;9.57;6.60;;;;;14.90;100445.00;;;;4959546;28;20319;-70
2023/08/31 08:04:52;;;;;;;11.80;6.80;;;;;14.90;100450.00;;;;4963478;28;20317;-69
2023/08/31 08:07:40;;;;;;;10.70;6.23;;;;;14.90;100446.00;;;;4960863;28;20233;-69
2023/08/31 08:10:27;;;;;;;8.47;6.07;;;;;14.90;100449.00;;;;4967581;28;20245;-69
2023/08/31 08:13:13;;;;;;;9.73;5.87;;;;;14.90;100452.00;;;;4960249;28;20235;-71
2023/08/31 08:16:00;;;;;;;11.40;6.43;;;;;15.00;100452.00;;;;4960634;28;20248;-71
2023/08/31 08:18:46;;;;;;;10.13;6.33;;;;;15.10;100455.00;;;;4961540;28;20262;-70
2023/08/31 08:21:34;;;;;;;9.30;5.83;;;;;15.40;100452.00;;;;4962402;28;20232;-70
2023/08/31 08:24:20;;;;;;;7.57;5.60;;;;;15.60;100452.00;;;;4960172;28;20240;-70
2023/08/31 08:27:07;;;;;;;8.87;5.60;;;;;15.70;100457.00;;;;4963716;28;20286;-71
2023/08/31 08:29:53;;;;;;;7.07;5.23;;;;;15.80;100462.00;;;;4951942;28;20293;-70
2023/08/31 08:32:40;;;;;;;8.23;5.53;;;;;15.90;100461.00;;;;4965137;28;20712;-70
2023/08/31 08:35:27;;;;;;;5.70;4.63;;;;;16.10;100461.00;;;;4956707;28;20231;-70
2023/08/31 08:38:14;;;;;;;8.10;5.00;;;;;16.10;100463.00;;;;4955526;28;20315;-72
2023/08/31 08:41:05;;;;;;;8.33;4.73;;;;;16.20;100473.00;;;;4961888;28;20234;-70
2023/08/31 08:43:52;;;;;;;7.67;4.50;;;;;16.20;100472.00;;;;4959375;28;20297;-70
2023/08/31 08:46:39;;;;;;;7.17;4.10;;;;;16.10;100473.00;;;;4961882;28;20239;-71
2023/08/31 08:49:27;;;;;;;11.70;4.30;;;;;16.20;100469.00;;;;4960450;28;20223;-71
2023/08/31 08:52:15;;;;;;;7.47;4.33;;;;;16.30;100473.00;;;;4934296;28;20731;-71
2023/08/31 08:55:04;;;;;;;6.40;4.10;;;;;16.30;100474.00;;;;4961783;28;20239;-70
2023/08/31 08:57:50;;;;;;;7.17;4.03;;;;;16.30;100472.00;;;;4961614;28;20982;-69
2023/08/31 09:00:38;;;;;;;5.00;3.90;;;;;16.30;100481.00;;;;4964634;28;20767;-69
2023/08/31 09:03:25;;;;;;;7.00;3.93;;;;;16.40;100476.00;;;;4965312;28;20238;-70
2023/08/31 09:06:12;;;;;;;5.80;3.97;;;;;16.50;100483.00;;;;4963687;28;20230;-70
2023/08/31 09:08:58;;;;;;;6.83;3.53;;;;;16.50;100478.00;;;;4958225;28;20235;-71
2023/08/31 09:11:46;;;;;;;6.47;3.03;;;;;16.60;100475.00;;;;4966871;28;20577;-72
2023/08/31 09:14:32;;;;;;;5.03;3.60;;;;;16.80;100470.00;;;;4958966;28;20244;-70
2023/08/31 09:17:19;;;;;;;5.57;3.30;;;;;16.90;100485.00;;;;4962518;28;20746;-71
2023/08/31 09:20:06;;;;;;;5.03;3.63;;;;;16.90;100486.00;;;;4961395;28;20235;-72
2023/08/31 09:22:56;;;;;;;9.63;3.47;;;;;17.00;100481.00;;;;4963107;28;20240;-71
2023/08/31 09:25:43;;;;;;;5.63;3.80;;;;;17.10;100484.00;;;;4972584;28;20351;-68
2023/08/31 09:28:31;;;;;;;6.07;3.10;;;;;17.00;100480.00;;;;4963929;28;20247;-70
2023/08/31 09:31:17;;;;;;;5.17;3.13;;;;;17.00;100492.00;;;;4962021;28;20806;-71
2023/08/31 09:34:04;;;;;;;6.03;3.30;;;;;17.00;100491.00;;;;4966239;28;20369;-71
2023/08/31 09:36:50;;;;;;;3.70;2.90;;;;;17.10;100488.00;;;;4963215;28;20321;-71
2023/08/31 09:39:37;;;;;;;5.53;2.97;;;;;17.00;100493.00;;;;4965051;28;20596;-71
2023/08/31 09:42:36;;;;;;;5.50;3.00;;;;;17.00;100501.00;;;;4965287;28;20231;-70
2023/08/31 09:45:30;;;;;;;5.67;3.00;;;;;16.90;100506.00;;;;4958323;28;20656;-70
2023/08/31 09:48:32;;;;;;;5.97;3.20;;;;;16.90;100500.00;;;;4962702;28;20235;-71
2023/08/31 09:51:23;;;;;;;6.27;3.70;;;;;17.00;100501.00;;;;4966031;28;20227;-72
2023/08/31 09:54:12;;;;;;;4.87;3.43;;;;;17.10;100493.00;;;;4961675;28;20235;-70
2023/08/31 09:57:00;;;;;;;5.43;3.43;;;;;17.10;100506.00;;;;4959843;28;20240;-69
2023/08/31 09:59:47;;;;;;;5.33;3.20;;;;;17.10;100504.00;;;;4959502;28;21073;-70
2023/08/31 10:02:36;;;;;;;5.33;3.70;;;;;17.10;100493.00;;;;4957251;28;20227;-72
2023/08/31 10:05:23;;;;;;;8.20;3.70;;;;;17.20;100500.00;;;;4958549;28;20239;-67
2023/08/31 10:08:12;;;;;;;6.20;3.07;;;;;17.30;100501.00;;;;4960920;28;20330;-70
2023/08/31 10:11:01;;;;;;;4.60;3.30;;;;;17.30;100494.00;;;;4962422;28;20231;-71
2023/08/31 10:13:49;;;;;;;4.50;3.10;;;;;17.30;100499.00;;;;4961582;28;20230;-70
2023/08/31 10:16:36;;;;;;;5.73;3.30;;;;;17.60;100500.00;;;;4954320;28;20240;-72
2023/08/31 10:19:27;;;;;;;6.30;3.10;;;;;18.10;100508.00;;;;4961291;28;20306;-73
2023/08/31 10:22:13;;;;;;;5.53;3.10;;;;;18.60;100484.00;;;;4958052;28;20915;-74
2023/08/31 10:25:03;;;;;;;8.30;3.30;;;;;18.70;100500.00;;;;4963785;28;20310;-75
2023/08/31 10:27:51;;;;;;;4.57;2.63;;;;;18.60;100498.00;;;;4960874;28;20235;-74
2023/08/31 10:30:38;;;;;;;5.90;3.40;;;;;18.60;100507.00;;;;4960534;28;20228;-74
2023/08/31 10:33:24;;;;;;;3.13;2.63;;;;;18.90;100504.00;;;;4958912;28;20227;-75
2023/08/31 10:36:13;;;;;;;3.47;2.70;;;;;18.90;100502.00;;;;4960529;28;20231;-75
2023/08/31 10:39:08;;;;;;;4.93;2.80;;;;;19.10;100508.00;;;;4961801;28;20239;-75
2023/08/31 10:41:55;;;;;;;6.90;2.57;;;;;19.00;100505.00;;;;4962095;28;20596;-74
2023/08/31 10:44:43;;;;;;;6.20;2.60;;;;;18.90;100505.00;;;;4957969;28;20235;-74
2023/08/31 10:47:38;;;;;;;4.50;2.50;;;;;18.60;100506.00;;;;4961329;28;20291;-74
2023/08/31 10:50:27;;;;;;;4.10;3.20;;;;;18.40;100510.00;;;;4965761;28;20231;-72
2023/08/31 10:53:14;;;;;;;6.30;3.07;;;;;18.30;100519.00;;;;4964248;28;20236;-71
2023/08/31 10:56:00;;;;;;;4.03;2.70;;;;;18.10;100513.00;;;;4962067;28;20235;-72
2023/08/31 10:58:58;;;;;;;4.23;2.53;;;;;18.10;100511.00;;;;4965241;28;20254;-72
2023/08/31 11:01:52;;;;;;;3.53;2.47;;;;;18.20;100511.00;;;;4953826;28;20230;-73
2023/08/31 11:05:00;;;;;;;6.07;2.60;;;;;18.60;100508.00;;;;4952389;28;20704;-71
2023/08/31 11:07:49;;;;;;;4.23;2.70;;;;;19.10;100503.00;;;;4961809;28;20243;-71
2023/08/31 11:10:37;;;;;;;4.10;2.57;;;;;19.50;100505.00;;;;4963385;28;20352;-72
2023/08/31 11:13:24;;;;;;;2.90;2.50;;;;;19.60;100502.00;;;;4960918;28;20244;-72
2023/08/31 11:16:10;;;;;;;3.53;2.57;;;;;19.60;100492.00;;;;4958419;28;20227;-74
2023/08/31 11:18:57;;;;;;;6.47;3.30;;;;;19.30;100489.00;;;;4967186;28;20709;-71
2023/08/31 11:21:43;;;;;;;4.60;2.30;;;;;19.10;100498.00;;;;4961064;28;20244;-73
2023/08/31 11:24:30;;;;;;;5.33;2.53;;;;;19.00;100503.00;;;;4962211;28;20268;-69
2023/08/31 11:27:21;;;;;;;4.20;2.60;;;;;18.70;100497.00;;;;4963223;28;20243;-71
2023/08/31 11:30:16;;;;;;;4.47;2.87;;;;;18.40;100500.00;;;;4964958;28;20235;-71
2023/08/31 11:33:04;;;;;;;4.60;3.57;;;;;18.20;100500.00;;;;4963373;28;20344;-68
2023/08/31 11:35:50;;;;;;;7.23;3.33;;;;;18.10;100488.00;;;;4961857;28;20376;-71
2023/08/31 11:38:37;;;;;;;5.70;3.40;;;;;18.10;100486.00;;;;4958315;28;20251;-72
2023/08/31 11:41:24;;;;;;;5.93;3.63;;;;;18.40;100484.00;;;;4964473;28;20239;-71
2023/08/31 11:44:13;;;;;;;5.87;3.40;;;;;18.70;100492.00;;;;4962761;28;20355;-69
2023/08/31 11:47:00;;;;;;;7.00;3.40;;;;;19.20;100481.00;;;;4960376;28;20243;-71
2023/08/31 11:49:48;;;;;;;6.03;3.40;;;;;19.60;100482.00;;;;4964010;28;20231;-71
2023/08/31 11:52:35;;;;;;;4.83;3.00;;;;;19.90;100492.00;;;;4976985;28;20347;-71
2023/08/31 11:55:22;;;;;;;5.77;3.27;;;;;19.80;100487.00;;;;4967332;28;20240;-67
2023/08/31 11:58:09;;;;;;;7.50;3.10;;;;;19.80;100479.00;;;;4971574;28;20233;-70
2023/08/31 12:00:58;;;;;;;5.40;3.00;;;;;20.30;100483.00;;;;4962042;28;20786;-67
2023/08/31 12:03:45;;;;;;;6.13;3.00;;;;;20.70;100466.00;;;;4952437;28;20296;-70
2023/08/31 12:06:35;;;;;;;4.80;2.57;;;;;21.00;100476.00;;;;4973625;28;20867;-72
2023/08/31 12:09:22;;;;;;;5.03;2.27;;;;;21.40;100473.00;;;;4960455;28;20239;-71
2023/08/31 12:12:09;;;;;;;5.50;2.60;;;;;21.50;100467.00;;;;4964505;28;20235;-70
2023/08/31 12:14:55;;;;;;;3.77;2.23;;;;;21.80;100465.00;;;;4967687;28;20289;-72
2023/08/31 12:17:46;;;;;;;3.23;2.20;;;;;22.10;100468.00;;;;4964034;28;20740;-71
2023/08/31 12:20:35;;;;;;;6.53;2.13;;;;;22.30;100470.00;;;;4963374;28;20231;-71
2023/08/31 12:23:22;;;;;;;3.63;2.00;;;;;22.10;100479.00;;;;4964372;28;21030;-70
2023/08/31 12:26:08;;;;;;;2.93;2.43;;;;;21.50;100476.00;;;;4961080;28;20626;-71
2023/08/31 12:28:56;;;;;;;3.47;2.30;;;;;21.10;100478.00;;;;4966332;28;20235;-71
2023/08/31 12:31:43;;;;;;;3.33;2.27;;;;;20.80;100458.00;;;;4969449;28;20250;-71
2023/08/31 12:34:32;;;;;;;4.40;2.33;;;;;21.20;100468.00;;;;4969049;28;20238;-69
2023/08/31 12:37:18;;;;;;;4.00;2.40;;;;;21.30;100463.00;;;;4965887;28;20266;-70
2023/08/31 12:40:06;;;;;;;3.77;2.17;;;;;21.40;100483.00;;;;4964586;28;20767;-67
2023/08/31 12:42:53;;;;;;;4.37;1.90;;;;;21.40;100468.00;;;;4967463;28;20371;-70
2023/08/31 12:45:39;;;;;;;3.90;2.13;;;;;21.50;100476.00;;;;4968826;28;20239;-71
2023/08/31 12:48:26;;;;;;;4.40;2.63;;;;;21.40;100470.00;;;;4961226;28;20239;-69
2023/08/31 12:51:14;;;;;;;4.27;2.50;;;;;21.10;100487.00;;;;4960429;28;20235;-71
2023/08/31 12:54:00;;;;;;;3.00;2.30;;;;;20.80;100485.00;;;;4960773;28;20366;-70
2023/08/31 12:56:47;;;;;;;6.13;2.83;;;;;20.50;100485.00;;;;4961449;28;20278;-71
2023/08/31 12:59:33;;;;;;;4.57;2.60;;;;;20.20;100487.00;;;;4962002;28;22281;-73
2023/08/31 13:02:20;;;;;;;5.27;2.37;;;;;20.00;100494.00;;;;4964716;28;20229;-72
2023/08/31 13:05:07;;;;;;;5.47;2.20;;;;;19.90;100486.00;;;;4961841;28;20715;-72
2023/08/31 13:07:55;;;;;;;3.17;2.00;;;;;19.80;100485.00;;;;4961606;28;20379;-72
2023/08/31 13:10:42;;;;;;;3.70;2.30;;;;;19.80;100502.00;;;;4967249;28;20252;-71
2023/08/31 13:13:28;;;;;;;5.10;2.37;;;;;19.90;100509.00;;;;4963500;28;20300;-73
2023/08/31 13:16:15;;;;;;;5.20;2.10;;;;;19.90;100505.00;;;;4961938;28;20312;-71
2023/08/31 13:19:01;;;;;;;5.10;2.30;;;;;19.90;100524.00;;;;4964087;28;20300;-71
2023/08/31 13:21:48;;;;;;;4.63;2.60;;;;;19.90;100520.00;;;;4953504;28;20861;-72
2023/08/31 13:24:35;;;;;;;4.70;2.77;;;;;19.90;100514.00;;;;4961331;28;20241;-73
2023/08/31 13:27:21;;;;;;;4.83;3.00;;;;;19.90;100520.00;;;;4957517;28;20309;-71
2023/08/31 13:30:09;;;;;;;4.43;2.90;;;;;20.10;100518.00;;;;4960954;28;20941;-71
2023/08/31 13:32:55;;;;;;;3.43;2.40;;;;;19.90;100528.00;;;;4957683;28;20233;-69
2023/08/31 13:35:42;;;;;;;2.27;1.93;;;;;19.50;100515.00;;;;4966411;28;20236;-71
2023/08/31 13:38:29;;;;;;;3.13;1.90;;;;;19.30;100523.00;;;;4965457;28;20244;-69
2023/08/31 13:41:17;;;;;;;4.13;2.00;;;;;19.00;100516.00;;;;4958500;28;20249;-71